sensor_id;sensor_type;location;lat;lon;timestamp;P1;durP1;ratioP1;P2;durP2;ratioP2
6823;SDS011;58633;49.470;11.004;2022-07-19T00:01:55;5.55;;;2.97;;
6823;SDS011;58633;49.470;11.004;2022-07-19T00:04:21;8.45;;;3.05;;
6823;SDS011;58633;49.470;11.004;2022-07-19T00:06:47;7.50;;;3.13;;
6823;SDS011;58633;49.470;11.004;2022-07-19T00:09:14;4.03;;;2.72;;
6823;SDS011;58633;49.470;11.004;2022-07-19T00:11:39;5.53;;;2.70;;
6823;SDS011;58633;49.470;11.004;2022-07-19T00:14:05;7.53;;;3.00;;
6823;SDS011;58633;49.470;11.004;2022-07-19T00:16:31;4.75;;;2.80;;
6823;SDS011;58633;49.470;11.004;2022-07-19T00:18:56;4.30;;;2.90;;
6823;SDS011;58633;49.470;11.004;2022-07-19T00:21:22;7.20;;;3.20;;
6823;SDS011;58633;49.470;11.004;2022-07-19T00:23:47;4.07;;;2.80;;
6823;SDS011;58633;49.470;11.004;2022-07-19T00:26:13;3.72;;;3.13;;
6823;SDS011;58633;49.470;11.004;2022-07-19T00:28:38;3.50;;;2.60;;
6823;SDS011;58633;49.470;11.004;2022-07-19T00:31:04;3.38;;;2.83;;
6823;SDS011;58633;49.470;11.004;2022-07-19T00:33:29;4.40;;;2.92;;
6823;SDS011;58633;49.470;11.004;2022-07-19T00:35:56;4.95;;;3.13;;
6823;SDS011;58633;49.470;11.004;2022-07-19T00:38:22;5.30;;;2.90;;
6823;SDS011;58633;49.470;11.004;2022-07-19T00:40:47;4.43;;;2.45;;
6823;SDS011;58633;49.470;11.004;2022-07-19T00:43:13;3.28;;;2.17;;
6823;SDS011;58633;49.470;11.004;2022-07-19T00:45:38;3.55;;;2.55;;
6823;SDS011;58633;49.470;11.004;2022-07-19T00:48:04;4.28;;;2.30;;
6823;SDS011;58633;49.470;11.004;2022-07-19T00:50:30;2.85;;;2.40;;
6823;SDS011;58633;49.470;11.004;2022-07-19T00:52:57;5.47;;;2.50;;
6823;SDS011;58633;49.470;11.004;2022-07-19T00:55:27;3.35;;;2.60;;
6823;SDS011;58633;49.470;11.004;2022-07-19T00:57:57;4.22;;;2.47;;
6823;SDS011;58633;49.470;11.004;2022-07-19T01:00:24;7.25;;;2.50;;
6823;SDS011;58633;49.470;11.004;2022-07-19T01:02:52;3.05;;;2.63;;
6823;SDS011;58633;49.470;11.004;2022-07-19T01:05:18;4.40;;;2.50;;
6823;SDS011;58633;49.470;11.004;2022-07-19T01:07:44;3.92;;;2.75;;
6823;SDS011;58633;49.470;11.004;2022-07-19T01:10:10;3.97;;;2.42;;
6823;SDS011;58633;49.470;11.004;2022-07-19T01:12:37;4.00;;;2.30;;
6823;SDS011;58633;49.470;11.004;2022-07-19T01:17:43;4.35;;;2.83;;
6823;SDS011;58633;49.470;11.004;2022-07-19T01:20:09;3.78;;;2.50;;
6823;SDS011;58633;49.470;11.004;2022-07-19T01:22:35;4.40;;;2.50;;
6823;SDS011;58633;49.470;11.004;2022-07-19T01:25:01;8.05;;;2.50;;
6823;SDS011;58633;49.470;11.004;2022-07-19T01:27:27;5.05;;;2.67;;
6823;SDS011;58633;49.470;11.004;2022-07-19T01:29:53;6.65;;;2.80;;
6823;SDS011;58633;49.470;11.004;2022-07-19T01:32:18;4.88;;;2.55;;
6823;SDS011;58633;49.470;11.004;2022-07-19T01:34:44;5.07;;;2.55;;
6823;SDS011;58633;49.470;11.004;2022-07-19T01:37:09;5.05;;;2.55;;
6823;SDS011;58633;49.470;11.004;2022-07-19T01:39:35;4.30;;;2.53;;
6823;SDS011;58633;49.470;11.004;2022-07-19T01:42:00;4.47;;;2.97;;
6823;SDS011;58633;49.470;11.004;2022-07-19T01:44:26;5.50;;;3.22;;
6823;SDS011;58633;49.470;11.004;2022-07-19T01:46:51;3.72;;;3.00;;
6823;SDS011;58633;49.470;11.004;2022-07-19T01:49:17;3.58;;;2.92;;
6823;SDS011;58633;49.470;11.004;2022-07-19T01:51:42;3.00;;;2.60;;
6823;SDS011;58633;49.470;11.004;2022-07-19T01:54:08;7.93;;;3.20;;
6823;SDS011;58633;49.470;11.004;2022-07-19T01:56:33;4.80;;;3.10;;
6823;SDS011;58633;49.470;11.004;2022-07-19T01:58:59;6.03;;;2.72;;
6823;SDS011;58633;49.470;11.004;2022-07-19T02:01:25;3.75;;;2.85;;
6823;SDS011;58633;49.470;11.004;2022-07-19T02:03:51;3.58;;;2.90;;
6823;SDS011;58633;49.470;11.004;2022-07-19T02:06:16;3.90;;;3.05;;
6823;SDS011;58633;49.470;11.004;2022-07-19T02:08:42;3.70;;;2.80;;
6823;SDS011;58633;49.470;11.004;2022-07-19T02:11:07;3.50;;;2.78;;
6823;SDS011;58633;49.470;11.004;2022-07-19T02:13:53;4.65;;;2.72;;
6823;SDS011;58633;49.470;11.004;2022-07-19T02:16:19;4.63;;;2.88;;
6823;SDS011;58633;49.470;11.004;2022-07-19T02:18:44;6.90;;;2.85;;
6823;SDS011;58633;49.470;11.004;2022-07-19T02:21:10;4.30;;;2.85;;
6823;SDS011;58633;49.470;11.004;2022-07-19T02:23:36;4.20;;;2.70;;
6823;SDS011;58633;49.470;11.004;2022-07-19T02:26:01;3.55;;;2.50;;
6823;SDS011;58633;49.470;11.004;2022-07-19T02:28:27;5.22;;;2.72;;
6823;SDS011;58633;49.470;11.004;2022-07-19T02:30:52;5.22;;;2.85;;
6823;SDS011;58633;49.470;11.004;2022-07-19T02:33:19;5.70;;;3.05;;
6823;SDS011;58633;49.470;11.004;2022-07-19T02:35:44;3.88;;;2.85;;
6823;SDS011;58633;49.470;11.004;2022-07-19T02:38:10;2.65;;;2.45;;
6823;SDS011;58633;49.470;11.004;2022-07-19T02:40:35;5.15;;;2.90;;
6823;SDS011;58633;49.470;11.004;2022-07-19T02:43:01;5.85;;;2.80;;
6823;SDS011;58633;49.470;11.004;2022-07-19T02:45:27;2.92;;;2.63;;
6823;SDS011;58633;49.470;11.004;2022-07-19T02:47:53;3.40;;;3.00;;
6823;SDS011;58633;49.470;11.004;2022-07-19T02:50:18;4.38;;;3.10;;
6823;SDS011;58633;49.470;11.004;2022-07-19T02:52:44;6.38;;;3.08;;
6823;SDS011;58633;49.470;11.004;2022-07-19T02:55:09;7.88;;;2.80;;
6823;SDS011;58633;49.470;11.004;2022-07-19T02:57:35;4.03;;;3.10;;
6823;SDS011;58633;49.470;11.004;2022-07-19T03:00:02;6.22;;;2.75;;
6823;SDS011;58633;49.470;11.004;2022-07-19T03:02:33;3.55;;;2.75;;
6823;SDS011;58633;49.470;11.004;2022-07-19T03:04:58;4.70;;;2.92;;
6823;SDS011;58633;49.470;11.004;2022-07-19T03:07:24;3.28;;;2.97;;
6823;SDS011;58633;49.470;11.004;2022-07-19T03:09:49;4.85;;;2.92;;
6823;SDS011;58633;49.470;11.004;2022-07-19T03:12:15;4.97;;;2.90;;
6823;SDS011;58633;49.470;11.004;2022-07-19T03:14:40;4.03;;;3.30;;
6823;SDS011;58633;49.470;11.004;2022-07-19T03:17:06;5.10;;;3.15;;
6823;SDS011;58633;49.470;11.004;2022-07-19T03:19:31;3.95;;;3.00;;
6823;SDS011;58633;49.470;11.004;2022-07-19T03:21:57;5.90;;;3.22;;
6823;SDS011;58633;49.470;11.004;2022-07-19T03:24:22;9.93;;;3.67;;
6823;SDS011;58633;49.470;11.004;2022-07-19T03:26:48;3.50;;;2.90;;
6823;SDS011;58633;49.470;11.004;2022-07-19T03:29:14;4.40;;;2.78;;
6823;SDS011;58633;49.470;11.004;2022-07-19T03:31:40;4.95;;;3.05;;
6823;SDS011;58633;49.470;11.004;2022-07-19T03:34:05;5.90;;;2.90;;
6823;SDS011;58633;49.470;11.004;2022-07-19T03:36:31;8.43;;;3.15;;
6823;SDS011;58633;49.470;11.004;2022-07-19T03:38:57;3.78;;;2.72;;
6823;SDS011;58633;49.470;11.004;2022-07-19T03:41:22;5.70;;;3.20;;
6823;SDS011;58633;49.470;11.004;2022-07-19T03:43:48;4.65;;;3.35;;
6823;SDS011;58633;49.470;11.004;2022-07-19T03:46:13;5.95;;;2.97;;
6823;SDS011;58633;49.470;11.004;2022-07-19T03:48:39;4.32;;;3.78;;
6823;SDS011;58633;49.470;11.004;2022-07-19T03:51:05;6.40;;;3.20;;
6823;SDS011;58633;49.470;11.004;2022-07-19T03:53:31;5.57;;;3.38;;
6823;SDS011;58633;49.470;11.004;2022-07-19T03:55:59;5.25;;;3.08;;
6823;SDS011;58633;49.470;11.004;2022-07-19T03:58:24;3.85;;;2.90;;
6823;SDS011;58633;49.470;11.004;2022-07-19T04:00:50;6.47;;;3.30;;
6823;SDS011;58633;49.470;11.004;2022-07-19T04:03:16;4.65;;;3.30;;
6823;SDS011;58633;49.470;11.004;2022-07-19T04:05:42;10.60;;;3.65;;
6823;SDS011;58633;49.470;11.004;2022-07-19T04:08:08;7.35;;;3.20;;
6823;SDS011;58633;49.470;11.004;2022-07-19T04:10:34;6.63;;;3.70;;
6823;SDS011;58633;49.470;11.004;2022-07-19T04:12:59;5.15;;;3.53;;
6823;SDS011;58633;49.470;11.004;2022-07-19T04:15:25;3.75;;;3.35;;
6823;SDS011;58633;49.470;11.004;2022-07-19T04:17:50;4.78;;;3.60;;
6823;SDS011;58633;49.470;11.004;2022-07-19T04:20:16;3.10;;;2.90;;
6823;SDS011;58633;49.470;11.004;2022-07-19T04:22:41;6.97;;;3.38;;
6823;SDS011;58633;49.470;11.004;2022-07-19T04:25:08;4.97;;;3.03;;
6823;SDS011;58633;49.470;11.004;2022-07-19T04:27:34;5.78;;;3.13;;
6823;SDS011;58633;49.470;11.004;2022-07-19T04:29:59;6.70;;;3.35;;
6823;SDS011;58633;49.470;11.004;2022-07-19T04:32:25;5.25;;;3.30;;
6823;SDS011;58633;49.470;11.004;2022-07-19T04:34:51;3.97;;;3.55;;
6823;SDS011;58633;49.470;11.004;2022-07-19T04:37:17;7.82;;;3.65;;
6823;SDS011;58633;49.470;11.004;2022-07-19T04:39:42;9.35;;;4.28;;
6823;SDS011;58633;49.470;11.004;2022-07-19T04:42:08;5.40;;;3.50;;
6823;SDS011;58633;49.470;11.004;2022-07-19T04:44:33;5.18;;;3.85;;
6823;SDS011;58633;49.470;11.004;2022-07-19T04:46:59;4.43;;;3.30;;
6823;SDS011;58633;49.470;11.004;2022-07-19T04:49:25;7.70;;;3.40;;
6823;SDS011;58633;49.470;11.004;2022-07-19T04:51:50;4.10;;;3.30;;
6823;SDS011;58633;49.470;11.004;2022-07-19T04:54:16;8.60;;;3.83;;
6823;SDS011;58633;49.470;11.004;2022-07-19T04:56:41;5.38;;;3.65;;
6823;SDS011;58633;49.470;11.004;2022-07-19T04:59:07;8.00;;;3.90;;
6823;SDS011;58633;49.470;11.004;2022-07-19T05:01:33;4.97;;;3.42;;
6823;SDS011;58633;49.470;11.004;2022-07-19T05:04:00;6.45;;;4.05;;
6823;SDS011;58633;49.470;11.004;2022-07-19T05:06:25;4.82;;;3.40;;
6823;SDS011;58633;49.470;11.004;2022-07-19T05:08:51;6.18;;;3.38;;
6823;SDS011;58633;49.470;11.004;2022-07-19T05:11:17;6.93;;;3.45;;
6823;SDS011;58633;49.470;11.004;2022-07-19T05:13:43;7.38;;;3.53;;
6823;SDS011;58633;49.470;11.004;2022-07-19T05:16:09;5.65;;;3.75;;
6823;SDS011;58633;49.470;11.004;2022-07-19T05:18:34;4.63;;;3.20;;
6823;SDS011;58633;49.470;11.004;2022-07-19T05:21:00;4.53;;;3.40;;
6823;SDS011;58633;49.470;11.004;2022-07-19T05:23:26;6.25;;;3.70;;
6823;SDS011;58633;49.470;11.004;2022-07-19T05:25:51;8.80;;;3.60;;
6823;SDS011;58633;49.470;11.004;2022-07-19T05:28:17;7.90;;;3.25;;
6823;SDS011;58633;49.470;11.004;2022-07-19T05:30:42;4.13;;;3.20;;
6823;SDS011;58633;49.470;11.004;2022-07-19T05:33:08;7.15;;;3.40;;
6823;SDS011;58633;49.470;11.004;2022-07-19T05:35:34;4.95;;;2.90;;
6823;SDS011;58633;49.470;11.004;2022-07-19T05:38:00;6.43;;;3.47;;
6823;SDS011;58633;49.470;11.004;2022-07-19T05:40:25;8.15;;;3.38;;
6823;SDS011;58633;49.470;11.004;2022-07-19T05:42:51;9.55;;;3.13;;
6823;SDS011;58633;49.470;11.004;2022-07-19T05:45:16;5.70;;;3.45;;
6823;SDS011;58633;49.470;11.004;2022-07-19T05:47:42;7.78;;;3.65;;
6823;SDS011;58633;49.470;11.004;2022-07-19T05:50:08;7.47;;;3.30;;
6823;SDS011;58633;49.470;11.004;2022-07-19T05:52:34;7.97;;;3.13;;
6823;SDS011;58633;49.470;11.004;2022-07-19T05:55:00;5.85;;;3.03;;
6823;SDS011;58633;49.470;11.004;2022-07-19T05:57:26;5.65;;;2.90;;
6823;SDS011;58633;49.470;11.004;2022-07-19T05:59:51;6.57;;;2.70;;
6823;SDS011;58633;49.470;11.004;2022-07-19T06:02:18;3.17;;;2.83;;
6823;SDS011;58633;49.470;11.004;2022-07-19T06:04:44;4.25;;;3.05;;
6823;SDS011;58633;49.470;11.004;2022-07-19T06:07:10;7.47;;;3.42;;
6823;SDS011;58633;49.470;11.004;2022-07-19T06:09:36;7.30;;;3.42;;
6823;SDS011;58633;49.470;11.004;2022-07-19T06:12:02;3.88;;;2.88;;
6823;SDS011;58633;49.470;11.004;2022-07-19T06:14:27;3.67;;;2.55;;
6823;SDS011;58633;49.470;11.004;2022-07-19T06:16:53;3.72;;;2.90;;
6823;SDS011;58633;49.470;11.004;2022-07-19T06:19:19;5.40;;;3.00;;
6823;SDS011;58633;49.470;11.004;2022-07-19T06:21:46;4.35;;;2.70;;
6823;SDS011;58633;49.470;11.004;2022-07-19T06:24:11;6.13;;;2.80;;
6823;SDS011;58633;49.470;11.004;2022-07-19T06:26:37;7.28;;;2.88;;
6823;SDS011;58633;49.470;11.004;2022-07-19T06:29:03;4.93;;;2.45;;
6823;SDS011;58633;49.470;11.004;2022-07-19T06:31:29;6.13;;;2.70;;
6823;SDS011;58633;49.470;11.004;2022-07-19T06:33:54;4.82;;;2.53;;
6823;SDS011;58633;49.470;11.004;2022-07-19T06:36:20;4.78;;;2.95;;
6823;SDS011;58633;49.470;11.004;2022-07-19T06:38:47;8.05;;;3.30;;
6823;SDS011;58633;49.470;11.004;2022-07-19T06:41:14;4.85;;;2.75;;
6823;SDS011;58633;49.470;11.004;2022-07-19T06:43:41;4.60;;;2.85;;
6823;SDS011;58633;49.470;11.004;2022-07-19T06:46:07;7.40;;;2.85;;
6823;SDS011;58633;49.470;11.004;2022-07-19T06:48:32;6.72;;;3.22;;
6823;SDS011;58633;49.470;11.004;2022-07-19T06:50:58;7.97;;;3.30;;
6823;SDS011;58633;49.470;11.004;2022-07-19T06:53:25;9.73;;;2.55;;
6823;SDS011;58633;49.470;11.004;2022-07-19T06:55:50;5.97;;;2.90;;
6823;SDS011;58633;49.470;11.004;2022-07-19T06:58:17;7.28;;;2.85;;
6823;SDS011;58633;49.470;11.004;2022-07-19T07:00:43;6.50;;;3.05;;
6823;SDS011;58633;49.470;11.004;2022-07-19T07:03:09;3.85;;;2.72;;
6823;SDS011;58633;49.470;11.004;2022-07-19T07:05:35;3.85;;;2.53;;
6823;SDS011;58633;49.470;11.004;2022-07-19T07:08:01;3.30;;;2.70;;
6823;SDS011;58633;49.470;11.004;2022-07-19T07:10:28;4.28;;;2.50;;
6823;SDS011;58633;49.470;11.004;2022-07-19T07:12:53;4.63;;;2.10;;
6823;SDS011;58633;49.470;11.004;2022-07-19T07:15:19;5.57;;;2.60;;
6823;SDS011;58633;49.470;11.004;2022-07-19T07:17:44;5.40;;;2.60;;
6823;SDS011;58633;49.470;11.004;2022-07-19T07:20:10;7.57;;;3.03;;
6823;SDS011;58633;49.470;11.004;2022-07-19T07:22:36;3.17;;;2.40;;
6823;SDS011;58633;49.470;11.004;2022-07-19T07:25:03;2.58;;;2.30;;
6823;SDS011;58633;49.470;11.004;2022-07-19T07:27:30;5.43;;;2.67;;
6823;SDS011;58633;49.470;11.004;2022-07-19T07:29:55;5.20;;;2.78;;
6823;SDS011;58633;49.470;11.004;2022-07-19T07:32:21;3.55;;;2.40;;
6823;SDS011;58633;49.470;11.004;2022-07-19T07:34:46;4.20;;;2.60;;
6823;SDS011;58633;49.470;11.004;2022-07-19T07:37:12;6.05;;;2.50;;
6823;SDS011;58633;49.470;11.004;2022-07-19T07:39:38;4.45;;;2.75;;
6823;SDS011;58633;49.470;11.004;2022-07-19T07:42:03;5.85;;;2.40;;
6823;SDS011;58633;49.470;11.004;2022-07-19T07:44:30;3.85;;;2.30;;
6823;SDS011;58633;49.470;11.004;2022-07-19T07:46:57;3.15;;;2.20;;
6823;SDS011;58633;49.470;11.004;2022-07-19T07:49:22;5.15;;;2.20;;
6823;SDS011;58633;49.470;11.004;2022-07-19T07:51:48;4.20;;;2.40;;
6823;SDS011;58633;49.470;11.004;2022-07-19T07:54:13;3.22;;;2.10;;
6823;SDS011;58633;49.470;11.004;2022-07-19T07:56:39;5.68;;;2.40;;
6823;SDS011;58633;49.470;11.004;2022-07-19T07:59:05;2.70;;;2.30;;
6823;SDS011;58633;49.470;11.004;2022-07-19T08:01:30;2.90;;;2.53;;
6823;SDS011;58633;49.470;11.004;2022-07-19T08:03:56;5.70;;;2.53;;
6823;SDS011;58633;49.470;11.004;2022-07-19T08:06:22;4.13;;;2.75;;
6823;SDS011;58633;49.470;11.004;2022-07-19T08:08:48;4.90;;;2.25;;
6823;SDS011;58633;49.470;11.004;2022-07-19T08:11:14;3.03;;;2.28;;
6823;SDS011;58633;49.470;11.004;2022-07-19T08:13:39;6.53;;;2.20;;
6823;SDS011;58633;49.470;11.004;2022-07-19T08:16:06;4.82;;;2.30;;
6823;SDS011;58633;49.470;11.004;2022-07-19T08:18:32;4.20;;;2.00;;
6823;SDS011;58633;49.470;11.004;2022-07-19T08:20:59;3.55;;;1.92;;
6823;SDS011;58633;49.470;11.004;2022-07-19T08:23:25;2.53;;;1.98;;
6823;SDS011;58633;49.470;11.004;2022-07-19T08:25:50;4.88;;;2.15;;
6823;SDS011;58633;49.470;11.004;2022-07-19T08:28:16;4.47;;;1.90;;
6823;SDS011;58633;49.470;11.004;2022-07-19T08:30:41;2.00;;;1.90;;
6823;SDS011;58633;49.470;11.004;2022-07-19T08:33:07;2.63;;;1.80;;
6823;SDS011;58633;49.470;11.004;2022-07-19T08:35:35;3.80;;;1.90;;
6823;SDS011;58633;49.470;11.004;2022-07-19T08:38:00;2.53;;;2.10;;
6823;SDS011;58633;49.470;11.004;2022-07-19T08:40:27;2.65;;;2.00;;
6823;SDS011;58633;49.470;11.004;2022-07-19T08:42:56;4.93;;;1.73;;
6823;SDS011;58633;49.470;11.004;2022-07-19T08:45:23;4.63;;;1.83;;
6823;SDS011;58633;49.470;11.004;2022-07-19T08:47:52;3.05;;;1.77;;
6823;SDS011;58633;49.470;11.004;2022-07-19T08:50:19;2.17;;;1.95;;
6823;SDS011;58633;49.470;11.004;2022-07-19T08:52:45;3.25;;;1.67;;
6823;SDS011;58633;49.470;11.004;2022-07-19T08:55:11;1.83;;;1.70;;
6823;SDS011;58633;49.470;11.004;2022-07-19T08:57:39;2.17;;;1.92;;
6823;SDS011;58633;49.470;11.004;2022-07-19T09:00:26;2.53;;;1.70;;
6823;SDS011;58633;49.470;11.004;2022-07-19T09:02:57;6.47;;;1.90;;
6823;SDS011;58633;49.470;11.004;2022-07-19T09:05:24;1.52;;;1.42;;
6823;SDS011;58633;49.470;11.004;2022-07-19T09:08:04;2.85;;;1.83;;
6823;SDS011;58633;49.470;11.004;2022-07-19T09:10:41;5.10;;;1.92;;
6823;SDS011;58633;49.470;11.004;2022-07-19T09:18:06;2.67;;;1.80;;
6823;SDS011;58633;49.470;11.004;2022-07-19T09:20:33;2.60;;;1.60;;
6823;SDS011;58633;49.470;11.004;2022-07-19T09:23:00;3.58;;;1.60;;
6823;SDS011;58633;49.470;11.004;2022-07-19T09:25:33;2.83;;;1.60;;
6823;SDS011;58633;49.470;11.004;2022-07-19T09:28:03;6.05;;;1.67;;
6823;SDS011;58633;49.470;11.004;2022-07-19T09:30:40;2.08;;;1.60;;
6823;SDS011;58633;49.470;11.004;2022-07-19T09:33:09;2.60;;;1.70;;
6823;SDS011;58633;49.470;11.004;2022-07-19T09:35:39;2.00;;;1.80;;
6823;SDS011;58633;49.470;11.004;2022-07-19T09:38:16;2.20;;;1.95;;
6823;SDS011;58633;49.470;11.004;2022-07-19T09:40:46;1.95;;;1.80;;
6823;SDS011;58633;49.470;11.004;2022-07-19T09:43:17;3.67;;;1.90;;
6823;SDS011;58633;49.470;11.004;2022-07-19T09:45:44;2.67;;;2.00;;
6823;SDS011;58633;49.470;11.004;2022-07-19T09:48:10;3.33;;;1.90;;
6823;SDS011;58633;49.470;11.004;2022-07-19T09:50:35;2.35;;;1.80;;
6823;SDS011;58633;49.470;11.004;2022-07-19T09:53:02;3.15;;;1.50;;
6823;SDS011;58633;49.470;11.004;2022-07-19T09:55:29;5.43;;;2.00;;
6823;SDS011;58633;49.470;11.004;2022-07-19T09:57:55;4.03;;;1.92;;
6823;SDS011;58633;49.470;11.004;2022-07-19T10:00:23;6.82;;;1.80;;
6823;SDS011;58633;49.470;11.004;2022-07-19T10:02:50;4.57;;;1.98;;
6823;SDS011;58633;49.470;11.004;2022-07-19T10:05:19;3.50;;;2.10;;
6823;SDS011;58633;49.470;11.004;2022-07-19T10:07:45;3.30;;;1.70;;
6823;SDS011;58633;49.470;11.004;2022-07-19T10:10:12;3.08;;;2.08;;
6823;SDS011;58633;49.470;11.004;2022-07-19T10:12:41;2.97;;;1.60;;
6823;SDS011;58633;49.470;11.004;2022-07-19T10:15:10;4.20;;;1.65;;
6823;SDS011;58633;49.470;11.004;2022-07-19T10:18:00;3.72;;;1.63;;
6823;SDS011;58633;49.470;11.004;2022-07-19T10:20:29;2.88;;;2.10;;
6823;SDS011;58633;49.470;11.004;2022-07-19T10:23:02;4.15;;;1.50;;
6823;SDS011;58633;49.470;11.004;2022-07-19T10:25:45;2.60;;;1.70;;
6823;SDS011;58633;49.470;11.004;2022-07-19T10:28:31;2.28;;;1.70;;
6823;SDS011;58633;49.470;11.004;2022-07-19T10:31:01;3.45;;;1.98;;
6823;SDS011;58633;49.470;11.004;2022-07-19T10:33:29;4.30;;;1.55;;
6823;SDS011;58633;49.470;11.004;2022-07-19T10:39:23;2.88;;;1.70;;
6823;SDS011;58633;49.470;11.004;2022-07-19T10:44:35;6.47;;;2.05;;
6823;SDS011;58633;49.470;11.004;2022-07-19T10:48:07;3.95;;;2.08;;
6823;SDS011;58633;49.470;11.004;2022-07-19T10:50:11;3.25;;;1.80;;
6823;SDS011;58633;49.470;11.004;2022-07-19T10:52:43;3.58;;;1.77;;
6823;SDS011;58633;49.470;11.004;2022-07-19T11:00:44;2.05;;;1.88;;
6823;SDS011;58633;49.470;11.004;2022-07-19T11:11:11;3.03;;;2.08;;
6823;SDS011;58633;49.470;11.004;2022-07-19T11:13:43;2.70;;;1.83;;
6823;SDS011;58633;49.470;11.004;2022-07-19T11:16:17;2.10;;;1.90;;
6823;SDS011;58633;49.470;11.004;2022-07-19T11:18:43;2.85;;;1.95;;
6823;SDS011;58633;49.470;11.004;2022-07-19T11:21:09;2.47;;;1.80;;
6823;SDS011;58633;49.470;11.004;2022-07-19T11:23:37;10.45;;;2.22;;
6823;SDS011;58633;49.470;11.004;2022-07-19T11:26:17;3.70;;;2.00;;
6823;SDS011;58633;49.470;11.004;2022-07-19T11:28:46;2.95;;;1.90;;
6823;SDS011;58633;49.470;11.004;2022-07-19T11:33:41;2.28;;;2.03;;
6823;SDS011;58633;49.470;11.004;2022-07-19T11:36:08;3.45;;;2.00;;
6823;SDS011;58633;49.470;11.004;2022-07-19T11:38:37;2.80;;;2.00;;
6823;SDS011;58633;49.470;11.004;2022-07-19T11:41:08;2.80;;;2.00;;
6823;SDS011;58633;49.470;11.004;2022-07-19T11:43:38;3.50;;;2.50;;
6823;SDS011;58633;49.470;11.004;2022-07-19T11:46:04;4.72;;;2.22;;
6823;SDS011;58633;49.470;11.004;2022-07-19T11:48:30;3.33;;;2.30;;
6823;SDS011;58633;49.470;11.004;2022-07-19T11:50:56;3.42;;;2.10;;
6823;SDS011;58633;49.470;11.004;2022-07-19T11:53:31;6.93;;;2.20;;
6823;SDS011;58633;49.470;11.004;2022-07-19T11:55:57;4.40;;;2.30;;
6823;SDS011;58633;49.470;11.004;2022-07-19T11:58:24;2.17;;;1.98;;
6823;SDS011;58633;49.470;11.004;2022-07-19T12:00:51;6.20;;;1.98;;
6823;SDS011;58633;49.470;11.004;2022-07-19T12:03:17;3.13;;;2.08;;
6823;SDS011;58633;49.470;11.004;2022-07-19T12:08:44;5.32;;;2.35;;
6823;SDS011;58633;49.470;11.004;2022-07-19T12:11:23;8.52;;;2.35;;
6823;SDS011;58633;49.470;11.004;2022-07-19T12:13:51;4.72;;;2.20;;
6823;SDS011;58633;49.470;11.004;2022-07-19T12:16:19;6.32;;;2.22;;
6823;SDS011;58633;49.470;11.004;2022-07-19T12:21:37;3.75;;;2.42;;
6823;SDS011;58633;49.470;11.004;2022-07-19T12:24:23;2.38;;;2.22;;
6823;SDS011;58633;49.470;11.004;2022-07-19T12:26:58;4.05;;;2.30;;
6823;SDS011;58633;49.470;11.004;2022-07-19T12:31:57;4.18;;;2.78;;
6823;SDS011;58633;49.470;11.004;2022-07-19T12:34:49;3.70;;;2.60;;
6823;SDS011;58633;49.470;11.004;2022-07-19T12:37:28;2.53;;;2.30;;
6823;SDS011;58633;49.470;11.004;2022-07-19T12:43:04;4.60;;;2.75;;
6823;SDS011;58633;49.470;11.004;2022-07-19T12:45:38;6.18;;;2.42;;
6823;SDS011;58633;49.470;11.004;2022-07-19T12:48:10;5.05;;;2.45;;
6823;SDS011;58633;49.470;11.004;2022-07-19T12:50:38;5.25;;;2.30;;
6823;SDS011;58633;49.470;11.004;2022-07-19T12:53:07;7.78;;;2.75;;
6823;SDS011;58633;49.470;11.004;2022-07-19T12:55:36;7.07;;;2.50;;
6823;SDS011;58633;49.470;11.004;2022-07-19T12:58:03;6.93;;;2.80;;
6823;SDS011;58633;49.470;11.004;2022-07-19T13:00:30;4.65;;;2.28;;
6823;SDS011;58633;49.470;11.004;2022-07-19T13:02:58;4.93;;;2.45;;
6823;SDS011;58633;49.470;11.004;2022-07-19T13:05:25;6.35;;;2.60;;
6823;SDS011;58633;49.470;11.004;2022-07-19T13:07:51;6.60;;;2.72;;
6823;SDS011;58633;49.470;11.004;2022-07-19T13:10:17;5.78;;;2.35;;
6823;SDS011;58633;49.470;11.004;2022-07-19T13:12:44;3.10;;;2.30;;
6823;SDS011;58633;49.470;11.004;2022-07-19T13:15:10;5.57;;;2.22;;
6823;SDS011;58633;49.470;11.004;2022-07-19T13:17:36;4.03;;;2.45;;
6823;SDS011;58633;49.470;11.004;2022-07-19T13:20:03;6.30;;;2.17;;
6823;SDS011;58633;49.470;11.004;2022-07-19T13:22:32;11.02;;;2.63;;
6823;SDS011;58633;49.470;11.004;2022-07-19T13:24:58;6.88;;;2.47;;
6823;SDS011;58633;49.470;11.004;2022-07-19T13:27:23;5.30;;;3.40;;
6823;SDS011;58633;49.470;11.004;2022-07-19T13:29:49;4.40;;;2.55;;
6823;SDS011;58633;49.470;11.004;2022-07-19T13:32:14;3.80;;;2.20;;
6823;SDS011;58633;49.470;11.004;2022-07-19T13:34:40;2.65;;;2.35;;
6823;SDS011;58633;49.470;11.004;2022-07-19T13:37:06;5.78;;;2.25;;
6823;SDS011;58633;49.470;11.004;2022-07-19T13:39:32;3.15;;;2.40;;
6823;SDS011;58633;49.470;11.004;2022-07-19T13:41:58;6.40;;;2.63;;
6823;SDS011;58633;49.470;11.004;2022-07-19T13:44:24;11.45;;;2.80;;
6823;SDS011;58633;49.470;11.004;2022-07-19T13:46:50;2.67;;;2.25;;
6823;SDS011;58633;49.470;11.004;2022-07-19T13:49:16;3.15;;;2.85;;
6823;SDS011;58633;49.470;11.004;2022-07-19T13:51:42;4.25;;;2.13;;
6823;SDS011;58633;49.470;11.004;2022-07-19T13:54:08;2.83;;;2.13;;
6823;SDS011;58633;49.470;11.004;2022-07-19T13:56:34;5.82;;;2.60;;
6823;SDS011;58633;49.470;11.004;2022-07-19T13:59:01;5.53;;;2.70;;
6823;SDS011;58633;49.470;11.004;2022-07-19T14:01:29;3.45;;;2.17;;
6823;SDS011;58633;49.470;11.004;2022-07-19T14:03:55;3.35;;;2.30;;
6823;SDS011;58633;49.470;11.004;2022-07-19T14:06:21;4.88;;;2.45;;
6823;SDS011;58633;49.470;11.004;2022-07-19T14:08:47;5.20;;;2.50;;
6823;SDS011;58633;49.470;11.004;2022-07-19T14:11:13;3.05;;;2.25;;
6823;SDS011;58633;49.470;11.004;2022-07-19T14:13:41;3.40;;;2.28;;
6823;SDS011;58633;49.470;11.004;2022-07-19T14:16:06;4.25;;;2.38;;
6823;SDS011;58633;49.470;11.004;2022-07-19T14:18:32;3.92;;;2.40;;
6823;SDS011;58633;49.470;11.004;2022-07-19T14:20:58;2.58;;;2.25;;
6823;SDS011;58633;49.470;11.004;2022-07-19T14:23:23;3.55;;;2.40;;
6823;SDS011;58633;49.470;11.004;2022-07-19T14:25:49;3.38;;;2.47;;
6823;SDS011;58633;49.470;11.004;2022-07-19T14:28:15;5.70;;;2.50;;
6823;SDS011;58633;49.470;11.004;2022-07-19T14:30:41;4.40;;;2.28;;
6823;SDS011;58633;49.470;11.004;2022-07-19T14:33:08;11.80;;;2.40;;
6823;SDS011;58633;49.470;11.004;2022-07-19T14:35:34;4.03;;;2.20;;
6823;SDS011;58633;49.470;11.004;2022-07-19T14:38:00;10.20;;;2.58;;
6823;SDS011;58633;49.470;11.004;2022-07-19T14:40:27;4.22;;;2.70;;
6823;SDS011;58633;49.470;11.004;2022-07-19T14:42:52;4.90;;;2.38;;
6823;SDS011;58633;49.470;11.004;2022-07-19T14:45:18;4.07;;;2.28;;
6823;SDS011;58633;49.470;11.004;2022-07-19T14:47:44;8.30;;;2.50;;
6823;SDS011;58633;49.470;11.004;2022-07-19T14:50:10;4.25;;;2.30;;
6823;SDS011;58633;49.470;11.004;2022-07-19T14:52:37;3.47;;;2.28;;
6823;SDS011;58633;49.470;11.004;2022-07-19T14:55:03;5.90;;;2.30;;
6823;SDS011;58633;49.470;11.004;2022-07-19T14:57:29;3.42;;;2.42;;
6823;SDS011;58633;49.470;11.004;2022-07-19T14:59:55;17.42;;;2.67;;
6823;SDS011;58633;49.470;11.004;2022-07-19T15:02:22;2.70;;;2.15;;
6823;SDS011;58633;49.470;11.004;2022-07-19T15:04:47;6.25;;;2.17;;
6823;SDS011;58633;49.470;11.004;2022-07-19T15:07:13;6.32;;;2.45;;
6823;SDS011;58633;49.470;11.004;2022-07-19T15:09:39;3.42;;;2.13;;
6823;SDS011;58633;49.470;11.004;2022-07-19T15:12:05;3.15;;;1.95;;
6823;SDS011;58633;49.470;11.004;2022-07-19T15:14:33;3.17;;;2.30;;
6823;SDS011;58633;49.470;11.004;2022-07-19T15:16:59;4.82;;;2.78;;
6823;SDS011;58633;49.470;11.004;2022-07-19T15:19:26;3.67;;;2.20;;
6823;SDS011;58633;49.470;11.004;2022-07-19T15:21:52;5.70;;;2.35;;
6823;SDS011;58633;49.470;11.004;2022-07-19T15:24:19;2.40;;;2.20;;
6823;SDS011;58633;49.470;11.004;2022-07-19T15:26:45;2.45;;;2.20;;
6823;SDS011;58633;49.470;11.004;2022-07-19T15:29:13;3.42;;;1.88;;